createdAt,value
2022-08-29T00:01:06.643Z,18.32
2022-08-29T00:03:40.771Z,18.30
2022-08-29T00:06:12.897Z,18.30
2022-08-29T00:08:46.601Z,18.29
2022-08-29T00:11:18.644Z,18.27
2022-08-29T00:13:51.332Z,18.25
2022-08-29T00:16:22.986Z,18.22
2022-08-29T00:18:54.565Z,18.21
2022-08-29T00:21:26.505Z,18.20
2022-08-29T00:23:58.694Z,18.19
2022-08-29T00:26:30.319Z,18.17
2022-08-29T00:29:03.258Z,18.14
2022-08-29T00:31:34.945Z,18.17
2022-08-29T00:34:06.565Z,18.11
2022-08-29T00:36:38.232Z,18.02
2022-08-29T00:39:09.834Z,17.97
2022-08-29T00:41:41.520Z,17.91
2022-08-29T00:44:13.180Z,17.88
2022-08-29T00:46:52.865Z,17.89
2022-08-29T00:49:51.280Z,17.84
2022-08-29T00:52:31.603Z,17.85
2022-08-29T00:55:12.212Z,17.86
2022-08-29T00:57:46.558Z,17.85
2022-08-29T01:00:19.177Z,17.83
2022-08-29T01:02:51.425Z,17.81
2022-08-29T01:05:26.160Z,17.78
2022-08-29T01:07:58.879Z,17.74
2022-08-29T01:10:49.629Z,17.69
2022-08-29T01:13:29.142Z,17.66
2022-08-29T01:16:06.795Z,17.68
2022-08-29T01:18:40.660Z,17.68
2022-08-29T01:21:35.242Z,17.69
2022-08-29T01:24:15.269Z,17.69
2022-08-29T01:26:47.942Z,17.69
2022-08-29T01:29:19.876Z,17.66
2022-08-29T01:31:57.056Z,17.67
2022-08-29T01:34:30.172Z,17.63
2022-08-29T01:37:05.549Z,17.57
2022-08-29T01:39:41.649Z,17.53
2022-08-29T01:42:20.522Z,17.43
2022-08-29T01:44:57.776Z,17.38
2022-08-29T01:47:34.928Z,17.37
2022-08-29T01:50:12.888Z,17.39
2022-08-29T01:52:48.000Z,17.39
2022-08-29T01:55:19.682Z,17.40
2022-08-29T01:57:51.256Z,17.38
2022-08-29T02:00:27.529Z,17.36
2022-08-29T02:03:01.194Z,17.33
2022-08-29T02:05:32.869Z,17.31
2022-08-29T02:08:04.680Z,17.33
2022-08-29T02:10:36.802Z,17.34
2022-08-29T02:13:08.521Z,17.36
2022-08-29T02:15:40.151Z,17.34
2022-08-29T02:18:11.758Z,17.34
2022-08-29T02:20:43.498Z,17.32
2022-08-29T02:23:30.181Z,17.33
2022-08-29T02:26:03.656Z,17.26
2022-08-29T02:28:37.577Z,17.18
2022-08-29T02:31:09.878Z,17.12
2022-08-29T02:33:41.546Z,17.08
2022-08-29T02:36:14.217Z,17.06
2022-08-29T02:38:47.209Z,17.09
2022-08-29T02:41:19.276Z,17.05
2022-08-29T02:43:50.886Z,17.07
2022-08-29T02:46:22.959Z,17.08
2022-08-29T02:49:00.942Z,17.08
2022-08-29T02:51:34.174Z,17.09
2022-08-29T02:54:05.834Z,17.09
2022-08-29T02:56:38.040Z,17.10
2022-08-29T02:59:09.653Z,17.05
2022-08-29T03:01:41.313Z,17.01
2022-08-29T03:04:12.942Z,17.00
2022-08-29T03:06:44.525Z,16.97
2022-08-29T03:09:16.205Z,16.97
2022-08-29T03:11:47.836Z,16.97
2022-08-29T03:14:19.418Z,16.96
2022-08-29T03:16:51.852Z,16.92
2022-08-29T03:19:23.433Z,16.91
2022-08-29T03:21:55.477Z,16.93
2022-08-29T03:24:28.133Z,16.93
2022-08-29T03:26:59.726Z,16.93
2022-08-29T03:29:31.289Z,16.93
2022-08-29T03:32:03.190Z,16.91
2022-08-29T03:34:34.824Z,16.92
2022-08-29T03:37:06.485Z,16.87
2022-08-29T03:39:40.957Z,16.82
2022-08-29T03:42:12.754Z,16.78
2022-08-29T03:44:44.364Z,16.77
2022-08-29T03:47:16.117Z,16.68
2022-08-29T03:49:47.738Z,16.65
2022-08-29T03:52:19.358Z,16.57
2022-08-29T03:54:51.000Z,16.49
2022-08-29T03:57:22.570Z,16.47
2022-08-29T03:59:54.366Z,16.43
2022-08-29T04:02:26.132Z,16.39
2022-08-29T04:05:10.007Z,16.38
2022-08-29T04:07:54.197Z,16.40
2022-08-29T04:10:33.127Z,16.39
2022-08-29T04:13:07.005Z,16.37
2022-08-29T04:15:42.992Z,16.35
2022-08-29T04:18:15.672Z,16.34
2022-08-29T04:21:01.945Z,16.34
2022-08-29T04:23:36.194Z,16.35
2022-08-29T04:26:35.857Z,16.39
2022-08-29T04:29:10.710Z,16.39
2022-08-29T04:31:43.594Z,16.32
2022-08-29T04:34:15.349Z,16.25
2022-08-29T04:36:47.295Z,16.14
2022-08-29T04:39:19.166Z,16.08
2022-08-29T04:41:50.818Z,16.01
2022-08-29T04:44:22.565Z,15.92
2022-08-29T04:46:54.220Z,15.82
2022-08-29T04:49:25.941Z,15.79
2022-08-29T04:51:57.757Z,15.85
2022-08-29T04:54:29.385Z,15.84
2022-08-29T04:57:03.300Z,15.88
2022-08-29T04:59:37.743Z,15.92
2022-08-29T05:02:09.533Z,15.98
2022-08-29T05:04:41.142Z,16.11
2022-08-29T05:07:12.868Z,16.35
2022-08-29T05:09:44.482Z,16.51
2022-08-29T05:12:16.697Z,16.76
2022-08-29T05:14:48.281Z,17.01
2022-08-29T05:17:19.909Z,17.23
2022-08-29T05:19:51.932Z,17.47
2022-08-29T05:22:23.702Z,17.69
2022-08-29T05:24:57.008Z,17.92
2022-08-29T05:27:28.605Z,18.17
2022-08-29T05:30:01.155Z,18.43
2022-08-29T05:32:32.820Z,18.68
2022-08-29T05:35:04.688Z,18.95
2022-08-29T05:37:36.578Z,19.16
2022-08-29T05:40:09.753Z,19.32
2022-08-29T05:42:41.902Z,19.63
2022-08-29T05:45:13.557Z,19.92
2022-08-29T05:47:45.660Z,20.07
2022-08-29T05:50:18.097Z,20.24
2022-08-29T05:52:49.676Z,20.53
2022-08-29T05:55:21.332Z,20.81
2022-08-29T05:57:54.506Z,21.12
2022-08-29T06:00:26.101Z,21.40
2022-08-29T06:02:57.803Z,21.60
2022-08-29T06:05:29.497Z,21.68
2022-08-29T06:08:01.486Z,21.98
2022-08-29T06:10:33.559Z,22.37
2022-08-29T06:13:05.138Z,22.83
2022-08-29T06:15:36.825Z,23.16
2022-08-29T06:18:08.555Z,23.33
2022-08-29T06:20:40.752Z,23.47
2022-08-29T06:23:12.352Z,23.65
2022-08-29T06:25:43.945Z,24.05
2022-08-29T06:28:23.756Z,24.27
2022-08-29T06:30:55.835Z,24.46
2022-08-29T06:33:27.512Z,24.60
2022-08-29T06:35:59.082Z,24.60
2022-08-29T06:38:30.799Z,24.93
2022-08-29T06:41:12.154Z,25.20
2022-08-29T06:43:43.897Z,25.19
2022-08-29T06:46:33.866Z,25.23
2022-08-29T06:49:08.425Z,25.46
2022-08-29T06:51:42.433Z,25.66
2022-08-29T06:54:14.151Z,25.46
2022-08-29T06:56:46.197Z,25.68
2022-08-29T06:59:18.974Z,26.00
2022-08-29T07:01:50.758Z,26.48
2022-08-29T07:04:22.516Z,26.86
2022-08-29T07:06:55.154Z,27.11
2022-08-29T07:09:26.744Z,27.21
2022-08-29T07:11:58.377Z,27.30
2022-08-29T07:14:29.981Z,27.42
2022-08-29T07:17:01.642Z,27.34
2022-08-29T07:19:33.224Z,27.35
2022-08-29T07:22:05.070Z,26.77
2022-08-29T07:24:39.609Z,27.00
2022-08-29T07:27:12.048Z,27.30
2022-08-29T07:29:45.643Z,27.55
2022-08-29T07:32:25.655Z,27.62
2022-08-29T07:34:57.549Z,27.98
2022-08-29T07:37:29.164Z,28.10
2022-08-29T07:40:00.784Z,27.39
2022-08-29T07:42:37.995Z,27.51
2022-08-29T07:45:11.426Z,26.82
2022-08-29T07:47:43.063Z,26.79
2022-08-29T07:50:14.984Z,27.03
2022-08-29T07:52:48.518Z,26.47
2022-08-29T07:55:21.958Z,26.18
2022-08-29T07:57:53.829Z,25.87
2022-08-29T08:00:25.500Z,25.48
2022-08-29T08:02:57.428Z,25.32
2022-08-29T08:05:29.094Z,25.73
2022-08-29T08:08:05.125Z,26.42
2022-08-29T08:10:40.846Z,26.22
2022-08-29T08:13:12.484Z,26.70
2022-08-29T08:15:44.112Z,27.39
2022-08-29T08:18:16.636Z,27.85
2022-08-29T08:20:48.521Z,28.44
2022-08-29T08:23:20.400Z,27.70
2022-08-29T08:25:52.273Z,27.43
2022-08-29T08:28:23.953Z,28.09
2022-08-29T08:30:55.666Z,28.60
2022-08-29T08:33:27.491Z,28.44
2022-08-29T08:36:01.325Z,28.50
2022-08-29T08:38:32.969Z,29.11
2022-08-29T08:41:13.483Z,29.56
2022-08-29T08:43:54.072Z,29.89
2022-08-29T08:46:37.175Z,30.18
2022-08-29T08:49:33.897Z,30.36
2022-08-29T08:52:12.347Z,30.17
2022-08-29T08:54:53.410Z,30.45
2022-08-29T08:57:32.266Z,30.90
2022-08-29T09:00:06.397Z,31.19
2022-08-29T09:03:03.615Z,31.21
2022-08-29T09:06:20.602Z,30.41
2022-08-29T09:09:22.836Z,29.80
2022-08-29T09:12:16.315Z,30.39
2022-08-29T09:15:04.222Z,30.49
2022-08-29T09:17:48.638Z,30.81
2022-08-29T09:20:28.668Z,31.05
2022-08-29T09:23:30.621Z,31.14
2022-08-29T09:26:02.484Z,31.39
2022-08-29T09:28:35.450Z,31.22
2022-08-29T09:31:29.768Z,30.52
2022-08-29T09:34:12.072Z,30.62
2022-08-29T09:36:46.036Z,30.24
2022-08-29T09:39:29.766Z,30.21
2022-08-29T09:42:13.696Z,30.47
2022-08-29T09:44:54.672Z,30.44
2022-08-29T09:47:31.950Z,30.15
2022-08-29T09:50:12.650Z,30.24
2022-08-29T09:53:24.628Z,30.36
2022-08-29T09:56:10.405Z,29.96
2022-08-29T09:58:42.901Z,30.33
2022-08-29T10:01:25.629Z,30.37
2022-08-29T10:04:03.493Z,30.63
2022-08-29T10:06:45.105Z,31.05
2022-08-29T10:09:28.043Z,31.41
2022-08-29T10:12:14.255Z,31.85
2022-08-29T10:14:54.436Z,32.17
2022-08-29T10:17:57.181Z,31.62
2022-08-29T10:20:44.284Z,31.33
2022-08-29T10:23:59.733Z,31.71
2022-08-29T10:27:10.616Z,32.14
2022-08-29T10:30:08.046Z,31.97
2022-08-29T10:33:30.106Z,32.27
2022-08-29T10:36:13.062Z,32.28
2022-08-29T10:39:03.079Z,32.51
2022-08-29T10:41:40.380Z,32.65
2022-08-29T10:44:52.075Z,32.33
2022-08-29T10:47:36.643Z,32.57
2022-08-29T10:50:43.160Z,32.50
2022-08-29T10:53:31.728Z,31.81
2022-08-29T10:56:30.371Z,31.90
2022-08-29T10:59:29.352Z,31.86
2022-08-29T11:02:08.618Z,32.14
2022-08-29T11:04:56.662Z,32.17
2022-08-29T11:07:46.958Z,31.58
2022-08-29T11:10:24.859Z,30.97
2022-08-29T11:12:58.359Z,30.99
2022-08-29T11:15:52.603Z,30.73
2022-08-29T11:18:24.287Z,30.48
2022-08-29T11:21:12.865Z,30.79
2022-08-29T11:23:48.510Z,30.85
2022-08-29T11:26:22.936Z,31.10
2022-08-29T11:29:39.094Z,31.24
2022-08-29T11:32:33.578Z,31.27
2022-08-29T11:35:20.617Z,31.25
2022-08-29T11:38:18.848Z,31.34
2022-08-29T11:44:03.285Z,31.54
2022-08-29T11:46:42.943Z,31.48
2022-08-29T11:49:41.501Z,31.60
2022-08-29T11:52:12.995Z,31.71
2022-08-29T11:54:52.134Z,31.88
2022-08-29T11:57:31.751Z,31.68
2022-08-29T12:00:38.992Z,30.97
2022-08-29T12:03:29.840Z,30.46
2022-08-29T12:06:14.521Z,29.86
2022-08-29T12:09:05.357Z,29.81
2022-08-29T12:12:12.880Z,29.47
2022-08-29T12:14:48.247Z,29.17
2022-08-29T12:17:19.769Z,28.90
2022-08-29T12:20:41.358Z,28.74
2022-08-29T12:23:12.858Z,28.48
2022-08-29T12:28:48.676Z,28.60
2022-08-29T12:31:30.748Z,28.92
2022-08-29T12:34:17.217Z,28.56
2022-08-29T12:37:16.786Z,28.92
2022-08-29T12:40:06.943Z,28.83
2022-08-29T12:42:56.653Z,28.31
2022-08-29T12:45:30.322Z,28.31
2022-08-29T12:48:12.958Z,28.52
2022-08-29T12:50:48.210Z,28.50
2022-08-29T12:53:25.486Z,28.68
2022-08-29T12:56:01.195Z,28.50
2022-08-29T12:58:48.018Z,28.46
2022-08-29T13:01:28.368Z,28.73
2022-08-29T13:04:10.627Z,28.92
2022-08-29T13:07:04.730Z,28.65
2022-08-29T13:09:51.867Z,28.28
2022-08-29T13:12:27.193Z,28.28
2022-08-29T13:15:08.604Z,28.57
2022-08-29T13:17:42.541Z,28.52
2022-08-29T13:20:42.836Z,28.29
2022-08-29T13:23:31.766Z,28.11
2022-08-29T13:26:20.542Z,28.10
2022-08-29T13:32:19.467Z,27.49
2022-08-29T13:35:21.478Z,27.40
2022-08-29T13:38:26.538Z,27.26
2022-08-29T13:40:58.783Z,27.34
2022-08-29T13:43:43.102Z,27.61
2022-08-29T13:46:30.345Z,27.73
2022-08-29T13:49:03.639Z,27.48
2022-08-29T13:51:35.338Z,27.28
2022-08-29T13:54:06.972Z,27.38
2022-08-29T13:56:38.731Z,27.23
2022-08-29T13:59:11.881Z,27.19
2022-08-29T14:04:38.957Z,27.07
2022-08-29T14:07:25.278Z,26.97
2022-08-29T14:09:57.535Z,27.00
2022-08-29T14:12:32.927Z,27.26
2022-08-29T14:15:09.854Z,27.38
2022-08-29T14:17:41.870Z,27.29
2022-08-29T14:20:15.314Z,27.36
2022-08-29T14:22:48.047Z,27.21
2022-08-29T14:25:21.485Z,27.18
2022-08-29T14:27:56.382Z,27.32
2022-08-29T14:30:28.113Z,27.22
2022-08-29T14:33:02.602Z,26.99
2022-08-29T14:35:34.753Z,26.70
2022-08-29T14:38:11.226Z,26.57
2022-08-29T14:40:43.835Z,26.76
2022-08-29T14:43:16.744Z,27.00
2022-08-29T14:45:48.426Z,26.98
2022-08-29T14:48:20.141Z,27.09
2022-08-29T14:50:51.745Z,26.84
2022-08-29T14:53:23.669Z,26.70
2022-08-29T14:55:56.294Z,26.66
2022-08-29T14:58:27.891Z,26.79
2022-08-29T15:01:00.166Z,26.92
2022-08-29T15:03:34.436Z,26.99
2022-08-29T15:06:06.631Z,26.97
2022-08-29T15:08:38.225Z,27.04
2022-08-29T15:11:13.197Z,26.99
2022-08-29T15:13:44.895Z,27.03
2022-08-29T15:16:16.592Z,26.76
2022-08-29T15:21:42.972Z,26.54
2022-08-29T15:24:14.622Z,26.27
2022-08-29T15:26:46.393Z,26.05
2022-08-29T15:29:18.500Z,26.02
2022-08-29T15:31:51.851Z,26.08
2022-08-29T15:34:25.558Z,25.85
2022-08-29T15:36:58.634Z,25.76
2022-08-29T15:39:33.080Z,25.73
2022-08-29T15:42:08.777Z,25.57
2022-08-29T15:44:40.744Z,25.50
2022-08-29T15:47:12.524Z,25.61
2022-08-29T15:49:49.333Z,25.60
2022-08-29T15:52:21.269Z,25.64
2022-08-29T15:54:53.057Z,25.60
2022-08-29T15:57:25.522Z,25.49
2022-08-29T15:59:58.825Z,25.47
2022-08-29T16:02:30.851Z,25.41
2022-08-29T16:05:02.703Z,25.42
2022-08-29T16:07:34.358Z,25.42
2022-08-29T16:10:10.756Z,25.29
2022-08-29T16:12:43.200Z,25.16
2022-08-29T16:15:14.799Z,25.12
2022-08-29T16:17:46.602Z,24.98
2022-08-29T16:20:18.815Z,24.98
2022-08-29T16:22:50.608Z,25.08
2022-08-29T16:25:24.157Z,25.07
2022-08-29T16:27:57.160Z,25.13
2022-08-29T16:30:29.453Z,25.15
2022-08-29T16:33:04.021Z,25.14
2022-08-29T16:35:35.632Z,24.98
2022-08-29T16:38:07.279Z,24.94
2022-08-29T16:40:42.010Z,24.94
2022-08-29T16:43:13.723Z,24.98
2022-08-29T16:45:45.557Z,25.01
2022-08-29T16:48:17.745Z,24.96
2022-08-29T16:50:49.697Z,24.98
2022-08-29T16:53:24.220Z,24.93
2022-08-29T16:55:55.801Z,24.80
2022-08-29T16:58:46.344Z,24.67
2022-08-29T17:01:18.269Z,24.69
2022-08-29T17:03:49.976Z,24.63
2022-08-29T17:06:22.205Z,24.69
2022-08-29T17:08:53.912Z,24.68
2022-08-29T17:11:26.266Z,24.67
2022-08-29T17:13:57.941Z,24.63
2022-08-29T17:16:29.860Z,24.62
2022-08-29T17:19:01.541Z,24.61
2022-08-29T17:21:34.359Z,24.50
2022-08-29T17:24:10.090Z,24.44
2022-08-29T17:26:45.239Z,24.44
2022-08-29T17:29:17.260Z,24.35
2022-08-29T17:31:49.015Z,24.20
2022-08-29T17:34:20.672Z,24.12
2022-08-29T17:36:52.243Z,24.09
2022-08-29T17:39:23.936Z,24.02
2022-08-29T17:41:55.512Z,23.95
2022-08-29T17:44:27.697Z,23.92
2022-08-29T17:46:59.313Z,23.91
2022-08-29T17:49:31.143Z,23.85
2022-08-29T17:52:03.031Z,23.81
2022-08-29T17:54:34.990Z,23.80
2022-08-29T17:57:06.710Z,23.79
2022-08-29T17:59:38.438Z,23.78
2022-08-29T18:02:13.345Z,23.76
2022-08-29T18:04:45.081Z,23.69
2022-08-29T18:07:17.262Z,23.62
2022-08-29T18:09:49.305Z,23.56
2022-08-29T18:12:20.940Z,23.51
2022-08-29T18:14:54.387Z,23.40
2022-08-29T18:17:26.039Z,23.26
2022-08-29T18:20:00.320Z,22.96
2022-08-29T18:22:31.801Z,22.91
2022-08-29T18:25:06.808Z,22.86
2022-08-29T18:27:43.673Z,22.85
2022-08-29T18:30:15.638Z,22.70
2022-08-29T18:32:47.316Z,22.65
2022-08-29T18:35:18.989Z,22.62
2022-08-29T18:37:50.569Z,22.59
2022-08-29T18:40:22.475Z,22.55
2022-08-29T18:42:54.143Z,22.46
2022-08-29T18:45:25.803Z,22.35
2022-08-29T18:47:57.482Z,22.30
2022-08-29T18:50:36.776Z,22.21
2022-08-29T18:53:13.333Z,22.18
2022-08-29T18:55:52.341Z,22.13
2022-08-29T18:58:27.855Z,22.03
2022-08-29T19:01:09.789Z,21.94
2022-08-29T19:03:41.738Z,21.91
2022-08-29T19:06:14.010Z,21.86
2022-08-29T19:08:46.304Z,21.77
2022-08-29T19:11:19.623Z,21.65
2022-08-29T19:13:52.484Z,21.59
2022-08-29T19:16:26.836Z,21.63
2022-08-29T19:19:02.830Z,21.65
2022-08-29T19:21:37.093Z,21.64
2022-08-29T19:24:08.994Z,21.62
2022-08-29T19:26:40.772Z,21.62
2022-08-29T19:29:16.907Z,21.62
2022-08-29T19:31:52.688Z,21.62
2022-08-29T19:34:26.548Z,21.62
2022-08-29T19:37:00.237Z,21.59
2022-08-29T19:39:32.774Z,21.56
2022-08-29T19:42:06.871Z,21.48
2022-08-29T19:44:47.987Z,21.35
2022-08-29T19:47:19.745Z,21.33
2022-08-29T19:49:52.360Z,21.29
2022-08-29T19:52:24.465Z,21.28
2022-08-29T19:54:58.445Z,21.29
2022-08-29T19:57:35.010Z,21.26
2022-08-29T20:00:13.935Z,21.21
2022-08-29T20:02:47.873Z,21.19
2022-08-29T20:05:22.049Z,21.12
2022-08-29T20:07:54.064Z,21.05
2022-08-29T20:10:27.812Z,21.03
2022-08-29T20:12:59.537Z,21.03
2022-08-29T20:15:31.225Z,21.06
2022-08-29T20:18:05.961Z,21.07
2022-08-29T20:20:40.681Z,21.06
2022-08-29T20:23:13.207Z,20.98
2022-08-29T20:25:47.919Z,20.96
2022-08-29T20:28:19.616Z,20.92
2022-08-29T20:30:51.279Z,20.91
2022-08-29T20:33:23.561Z,20.88
2022-08-29T20:36:13.749Z,20.87
2022-08-29T20:38:46.397Z,20.83
2022-08-29T20:41:22.106Z,20.82
2022-08-29T20:43:53.836Z,20.80
2022-08-29T20:46:28.459Z,20.80
2022-08-29T20:49:00.826Z,20.80
2022-08-29T20:51:37.480Z,20.79
2022-08-29T20:54:09.132Z,20.78
2022-08-29T20:56:40.910Z,20.71
2022-08-29T20:59:12.853Z,20.61
2022-08-29T21:01:47.330Z,20.50
2022-08-29T21:04:37.756Z,20.41
2022-08-29T21:07:12.204Z,20.29
2022-08-29T21:09:48.371Z,20.19
2022-08-29T21:12:21.048Z,20.15
2022-08-29T21:14:55.686Z,20.12
2022-08-29T21:17:27.292Z,20.15
2022-08-29T21:19:58.927Z,20.13
2022-08-29T21:22:33.368Z,20.13
2022-08-29T21:25:05.123Z,20.13
2022-08-29T21:27:36.742Z,20.12
2022-08-29T21:30:10.957Z,20.09
2022-08-29T21:32:42.587Z,20.02
2022-08-29T21:35:15.865Z,19.96
2022-08-29T21:37:48.789Z,19.91
2022-08-29T21:40:25.836Z,19.87
2022-08-29T21:42:59.660Z,19.84
2022-08-29T21:45:34.216Z,19.78
2022-08-29T21:48:05.645Z,19.71
2022-08-29T21:50:40.193Z,19.62
2022-08-29T21:53:13.069Z,19.55
2022-08-29T21:55:47.548Z,19.50
2022-08-29T21:58:20.210Z,19.42
2022-08-29T22:00:53.124Z,19.41
2022-08-29T22:03:24.973Z,19.37
2022-08-29T22:05:57.157Z,19.29
2022-08-29T22:08:28.725Z,19.27
2022-08-29T22:11:00.546Z,19.25
2022-08-29T22:13:32.136Z,19.22
2022-08-29T22:16:22.260Z,19.21
2022-08-29T22:18:55.345Z,19.18
2022-08-29T22:21:28.568Z,19.13
2022-08-29T22:24:01.545Z,19.08
2022-08-29T22:26:34.602Z,19.06
2022-08-29T22:29:12.086Z,19.03
2022-08-29T22:31:44.885Z,19.02
2022-08-29T22:34:17.912Z,18.97
2022-08-29T22:36:49.582Z,18.92
2022-08-29T22:39:21.200Z,18.90
2022-08-29T22:41:52.897Z,18.85
2022-08-29T22:47:17.685Z,18.73
2022-08-29T22:49:49.229Z,18.71
2022-08-29T22:52:21.264Z,18.70
2022-08-29T22:54:55.903Z,18.69
2022-08-29T22:57:27.589Z,18.66
2022-08-29T22:59:59.904Z,18.66
2022-08-29T23:02:31.626Z,18.62
2022-08-29T23:05:09.580Z,18.59
2022-08-29T23:07:41.685Z,18.55
2022-08-29T23:10:14.810Z,18.50
2022-08-29T23:12:50.657Z,18.47
2022-08-29T23:15:22.310Z,18.45
2022-08-29T23:17:53.972Z,18.42
2022-08-29T23:20:29.094Z,18.39
2022-08-29T23:23:01.735Z,18.38
2022-08-29T23:25:33.836Z,18.36
2022-08-29T23:28:05.578Z,18.27
2022-08-29T23:30:37.214Z,18.25
2022-08-29T23:33:08.992Z,18.22
2022-08-29T23:35:40.924Z,18.19
2022-08-29T23:38:12.523Z,18.17
2022-08-29T23:40:46.593Z,18.11
2022-08-29T23:43:21.044Z,18.11
2022-08-29T23:45:55.579Z,18.10
2022-08-29T23:48:29.969Z,18.08
2022-08-29T23:51:07.235Z,18.05
2022-08-29T23:53:38.924Z,18.04
2022-08-29T23:56:14.717Z,17.99
2022-08-29T23:58:46.791Z,17.97
